Bibo Regio — HE6415 — position and weather

sailwx.info

Track history (hours):
 
Tides and Currents Weather Stations Pressure Air Temp Water Temp Dewpoint Dewpoint Depression Visibility Wind Speed Wind Dir Waves Ship Positions

Bibo Regio

Last reported at 2016-Feb-12 07:31 UTC. Time now 2016-Feb-12 07:53 UTC.
Position N 47°35' E 007°35'.

Length 32 m.

Type: Ship. MMSI: 269056415.

Date/timePositionNaut miles runAvg speedWind from/ knotsBaromVisibWave heightAir tempDewpointWater temp
2016-Feb-12 07:31N 47°35' E 007°35'0 0.0
2016-Feb-12 06:30N 47°35' E 007°35'0 0.0
2016-Feb-12 05:33N 47°35' E 007°35'0 0.0
2016-Feb-12 04:33N 47°35' E 007°35'0 0.0
2016-Feb-12 03:33N 47°35' E 007°35'0 0.0
2016-Feb-12 02:33N 47°35' E 007°35'0 0.0
2016-Feb-12 01:33N 47°35' E 007°35'0 0.0
2016-Feb-12 00:33N 47°35' E 007°35'0 0.0
2016-Feb-11 23:33N 47°35' E 007°35'0 0.0
2016-Feb-11 22:33N 47°35' E 007°35'0 0.0
2016-Feb-11 21:33N 47°35' E 007°35'1 1.5
2016-Feb-11 20:33N 47°37' E 007°35'65 4.6
2016-Feb-11 06:29N 48°40' E 007°54'1 0.7
2016-Feb-11 05:32N 48°40' E 007°55'0 0.0
2016-Feb-11 03:23N 48°40' E 007°55'0 0.0
2016-Feb-11 02:33N 48°40' E 007°55'0 0.0
2016-Feb-11 01:33N 48°40' E 007°55'0 0.0
2016-Feb-11 00:31N 48°40' E 007°55'0 0.0
2016-Feb-10 23:33N 48°40' E 007°55'0 0.0
2016-Feb-10 22:33N 48°40' E 007°55'0 0.0
2016-Feb-10 21:31N 48°40' E 007°55'0 0.0
2016-Feb-10 20:29N 48°40' E 007°55'0 0.0
2016-Feb-10 19:33N 48°40' E 007°55'0 0.0
2016-Feb-10 17:32N 48°40' E 007°55'0 0.0
2016-Feb-10 16:33N 48°40' E 007°55'0 0.0
2016-Feb-10 15:33N 48°40' E 007°55'0 0.1
2016-Feb-10 13:33N 48°41' E 007°55'0 0.0
2016-Feb-10 12:33N 48°41' E 007°55'0 0.0
2016-Feb-10 11:33N 48°41' E 007°55'0 0.1
2016-Feb-10 10:33N 48°41' E 007°55'0 0.0
2016-Feb-10 09:33N 48°41' E 007°55'0 0.0
2016-Feb-10 08:29N 48°41' E 007°55'0 0.0
2016-Feb-10 07:33N 48°41' E 007°55'0 0.0
2016-Feb-10 06:30N 48°40' E 007°55'0 0.0
2016-Feb-10 05:33N 48°40' E 007°55'0 0.0
2016-Feb-10 04:33N 48°40' E 007°55'0 0.0
2016-Feb-10 03:33N 48°40' E 007°55'0 0.0
2016-Feb-10 02:33N 48°40' E 007°55'0 0.0
2016-Feb-10 01:33N 48°40' E 007°55'0 0.0
2016-Feb-10 00:33N 48°40' E 007°55'0 0.0
2016-Feb-09 23:33N 48°40' E 007°55'0 0.0
2016-Feb-09 22:33N 48°40' E 007°55'0 0.0
2016-Feb-09 21:33N 48°40' E 007°55'0 0.0
2016-Feb-09 20:33N 48°40' E 007°55'0 0.0
2016-Feb-09 19:33N 48°40' E 007°55'0 0.0
2016-Feb-09 18:33N 48°40' E 007°55'0 0.0
2016-Feb-09 17:31N 48°40' E 007°55'0 0.0
2016-Feb-09 16:32N 48°40' E 007°55'0 0.0
2016-Feb-09 15:33N 48°40' E 007°55'66 5.7
2016-Feb-09 04:09N 47°36' E 007°36'1 1.4
2016-Feb-09 03:33N 47°35' E 007°35'0 0.0
2016-Feb-09 02:33N 47°35' E 007°35'0 0.0
2016-Feb-09 01:33N 47°35' E 007°35'0 0.0
2016-Feb-09 00:33N 47°35' E 007°35'0 0.0
2016-Feb-08 23:33N 47°35' E 007°35'0 0.0
2016-Feb-08 22:33N 47°35' E 007°35'0 0.0
2016-Feb-08 21:33N 47°35' E 007°35'0 0.0
2016-Feb-08 20:33N 47°35' E 007°35'0 0.0
2016-Feb-08 19:33N 47°35' E 007°35'0 0.0
2016-Feb-08 18:33N 47°35' E 007°35'0 0.0
2016-Feb-08 17:33N 47°35' E 007°35'0 0.0
2016-Feb-08 16:33N 47°35' E 007°35'0 0.0
2016-Feb-08 15:33N 47°35' E 007°35'0 0.0
2016-Feb-08 14:33N 47°35' E 007°35'0 0.0
2016-Feb-08 13:33N 47°35' E 007°35'0 0.0
2016-Feb-08 12:33N 47°35' E 007°35'0 0.0
2016-Feb-08 11:33N 47°35' E 007°35'0 0.0
2016-Feb-08 10:33N 47°35' E 007°35'0 0.0
2016-Feb-08 09:33N 47°35' E 007°35'0 0.0
2016-Feb-08 08:32N 47°35' E 007°35'0 0.0
2016-Feb-08 07:33N 47°35' E 007°35'0 0.0
2016-Feb-08 06:33N 47°35' E 007°35'0 0.0
2016-Feb-08 05:33N 47°35' E 007°35'0 0.0
2016-Feb-08 04:33N 47°35' E 007°35'0 0.0
2016-Feb-08 03:33N 47°35' E 007°35'0 0.0
2016-Feb-08 02:33N 47°35' E 007°35'0 0.0
2016-Feb-08 01:33N 47°35' E 007°35'0 0.0
2016-Feb-08 00:33N 47°35' E 007°35'0 0.0
2016-Feb-07 23:32N 47°35' E 007°35'0 0.0
2016-Feb-07 22:33N 47°35' E 007°35'0 0.0
2016-Feb-07 21:33N 47°35' E 007°35'0 0.0
2016-Feb-07 20:33N 47°35' E 007°35'0 0.0
2016-Feb-07 19:33N 47°35' E 007°35'0 0.0
2016-Feb-07 18:33N 47°35' E 007°35'0 0.0
2016-Feb-07 17:33N 47°35' E 007°35'0 0.0
2016-Feb-07 16:33N 47°35' E 007°35'0 0.0
2016-Feb-07 15:33N 47°35' E 007°35'0 0.0
2016-Feb-07 14:33N 47°35' E 007°35'0 0.0
2016-Feb-07 13:15N 47°35' E 007°35'0 0.0
2016-Feb-07 12:33N 47°35' E 007°35'0 0.0
2016-Feb-07 11:33N 47°35' E 007°35'0 0.0
2016-Feb-07 10:33N 47°35' E 007°35'0 0.0
2016-Feb-06 08:17N 47°35' E 007°35'0 0.0
2016-Feb-06 07:27N 47°35' E 007°35'0 0.0
2016-Feb-06 06:33N 47°35' E 007°35'0 0.0
2016-Feb-06 05:32N 47°35' E 007°35'0 0.0
2016-Feb-06 04:31N 47°35' E 007°35'0 0.0
2016-Feb-06 03:33N 47°35' E 007°35'0 0.0
2016-Feb-06 02:33N 47°35' E 007°35'0 0.0
2016-Feb-06 01:32N 47°35' E 007°35'0 0.0
2016-Feb-06 00:33N 47°35' E 007°35'0 0.0
2016-Feb-05 23:33N 47°35' E 007°35'0 0.0
2016-Feb-05 22:33N 47°35' E 007°35'0 0.0
2016-Feb-05 21:32N 47°35' E 007°35'0 0.0
2016-Feb-05 20:30N 47°35' E 007°35'0 0.0
2016-Feb-05 19:32N 47°35' E 007°35'0 0.0
2016-Feb-05 18:33N 47°35' E 007°35'0 0.0
2016-Feb-05 17:33N 47°35' E 007°35'0 0.0
2016-Feb-05 16:33N 47°35' E 007°35'0 0.0
2016-Feb-05 15:33N 47°35' E 007°35'0 0.0
2016-Feb-05 14:20N 47°35' E 007°35'0 0.0
2016-Feb-05 13:13N 47°35' E 007°35'0 0.0
2016-Feb-05 12:24N 47°35' E 007°35'0 0.2
2016-Feb-05 11:33N 47°35' E 007°36'0 0.4
2016-Feb-05 10:22N 47°35' E 007°35'0 0.2
2016-Feb-05 09:33N 47°35' E 007°35'0 0.0
2016-Feb-05 08:33N 47°35' E 007°35'0 0.0
2016-Feb-05 07:33N 47°35' E 007°35'1 0.6
2016-Feb-05 06:33N 47°35' E 007°35'0 0.0
2016-Feb-05 05:33N 47°35' E 007°35'0 0.0
2016-Feb-05 04:33N 47°35' E 007°35'0 0.0
2016-Feb-05 03:33N 47°35' E 007°35'0 0.0
2016-Feb-05 02:33N 47°35' E 007°35'0 0.0
2016-Feb-05 01:33N 47°35' E 007°35'0 0.0
2016-Feb-05 00:33N 47°35' E 007°35'0 0.0
2016-Feb-04 23:33N 47°35' E 007°35'0 0.0
2016-Feb-04 22:33N 47°35' E 007°35'0 0.0
2016-Feb-04 21:33N 47°35' E 007°35'0 0.0
2016-Feb-04 20:33N 47°35' E 007°35'0 0.0
2016-Feb-04 19:33N 47°35' E 007°35'0 0.0
2016-Feb-04 18:33N 47°35' E 007°35'0 0.0
2016-Feb-04 17:33N 47°35' E 007°35'0 0.0
2016-Feb-04 16:33N 47°35' E 007°35'0 0.0
2016-Feb-04 15:30N 47°35' E 007°35'0 0.0
2016-Feb-04 14:33N 47°35' E 007°35'0 0.0
2016-Feb-04 13:33N 47°35' E 007°35'0 0.0
2016-Feb-04 12:32N 47°35' E 007°35'0 0.0
2016-Feb-04 11:32N 47°35' E 007°35'0 0.0
2016-Feb-04 10:33N 47°35' E 007°35'0 0.0
2016-Feb-04 09:18N 47°35' E 007°35'0 0.0
2016-Feb-04 08:30N 47°35' E 007°35'0 0.0
2016-Feb-04 07:29N 47°35' E 007°35'0 0.0
2016-Feb-04 03:06N 47°35' E 007°35'0 0.0
2016-Feb-03 20:20N 47°35' E 007°35'0 0.0
2016-Feb-03 15:33N 47°35' E 007°35'0 0.0
2016-Feb-03 13:33N 47°35' E 007°35'0 0.0
2016-Feb-03 12:31N 47°35' E 007°35'0 0.0
2016-Feb-03 11:20N 47°35' E 007°35'0 0.0
2016-Feb-03 10:31N 47°35' E 007°35'0 0.1
2016-Feb-03 09:33N 47°35' E 007°35'0 0.1
2016-Feb-03 08:33N 47°35' E 007°36'0 0.0
2016-Feb-03 05:11N 47°35' E 007°35'0 0.0
2016-Feb-03 04:21N 47°35' E 007°35'0 0.0
2016-Feb-03 03:34N 47°35' E 007°35'0 0.0
2016-Feb-03 02:34N 47°35' E 007°35'0 0.0
2016-Feb-03 01:34N 47°35' E 007°35'0 0.0
2016-Feb-03 00:34N 47°35' E 007°35'0 0.0
2016-Feb-02 23:34N 47°35' E 007°35'0 0.0
2016-Feb-02 22:33N 47°35' E 007°35'0 0.0
2016-Feb-02 21:33N 47°35' E 007°35'0 0.0
2016-Feb-02 20:33N 47°35' E 007°35'0 0.0
2016-Feb-02 19:33N 47°35' E 007°35'0 0.0
2016-Feb-02 18:33N 47°35' E 007°35'0 0.0
2016-Feb-02 17:33N 47°35' E 007°35'0 0.0
2016-Feb-02 16:33N 47°35' E 007°35'0 0.0
2016-Feb-02 15:33N 47°35' E 007°35'0 0.0
2016-Feb-02 14:34N 47°35' E 007°35'0 0.0
2016-Feb-02 13:34N 47°35' E 007°35'0 0.0
2016-Feb-02 12:34N 47°35' E 007°35'0 0.0
2016-Feb-02 11:34N 47°35' E 007°35'0 0.2
2016-Feb-02 10:34N 47°35' E 007°35'0 0.1
2016-Feb-02 09:24N 47°35' E 007°35'0 0.2
2016-Feb-02 08:27N 47°35' E 007°35'  
Track history (hours):
 
Tides and Currents Weather Stations Pressure Air Temp Water Temp Dewpoint Dewpoint Depression Visibility Wind Speed Wind Dir Waves Ship Positions

Bibo Regio

Last reported at 2016-Feb-12 07:31 UTC. Time now 2016-Feb-12 07:53 UTC.
Position N 47°35' E 007°35'.

Length 32 m.

Type: Ship. MMSI: 269056415.

Date/timePositionNaut miles runAvg speedWind from/ knotsBaromVisibWave heightAir tempDewpointWater temp
2016-Feb-12 07:31N 47°35' E 007°35'0 0.0
2016-Feb-12 06:30N 47°35' E 007°35'0 0.0
2016-Feb-12 05:33N 47°35' E 007°35'0 0.0
2016-Feb-12 04:33N 47°35' E 007°35'0 0.0
2016-Feb-12 03:33N 47°35' E 007°35'0 0.0
2016-Feb-12 02:33N 47°35' E 007°35'0 0.0
2016-Feb-12 01:33N 47°35' E 007°35'0 0.0
2016-Feb-12 00:33N 47°35' E 007°35'0 0.0
2016-Feb-11 23:33N 47°35' E 007°35'0 0.0
2016-Feb-11 22:33N 47°35' E 007°35'0 0.0
2016-Feb-11 21:33N 47°35' E 007°35'1 1.5
2016-Feb-11 20:33N 47°37' E 007°35'65 4.6
2016-Feb-11 06:29N 48°40' E 007°54'1 0.7
2016-Feb-11 05:32N 48°40' E 007°55'0 0.0
2016-Feb-11 03:23N 48°40' E 007°55'0 0.0
2016-Feb-11 02:33N 48°40' E 007°55'0 0.0
2016-Feb-11 01:33N 48°40' E 007°55'0 0.0
2016-Feb-11 00:31N 48°40' E 007°55'0 0.0
2016-Feb-10 23:33N 48°40' E 007°55'0 0.0
2016-Feb-10 22:33N 48°40' E 007°55'0 0.0
2016-Feb-10 21:31N 48°40' E 007°55'0 0.0
2016-Feb-10 20:29N 48°40' E 007°55'0 0.0
2016-Feb-10 19:33N 48°40' E 007°55'0 0.0
2016-Feb-10 17:32N 48°40' E 007°55'0 0.0
2016-Feb-10 16:33N 48°40' E 007°55'0 0.0
2016-Feb-10 15:33N 48°40' E 007°55'0 0.1
2016-Feb-10 13:33N 48°41' E 007°55'0 0.0
2016-Feb-10 12:33N 48°41' E 007°55'0 0.0
2016-Feb-10 11:33N 48°41' E 007°55'0 0.1
2016-Feb-10 10:33N 48°41' E 007°55'0 0.0
2016-Feb-10 09:33N 48°41' E 007°55'0 0.0
2016-Feb-10 08:29N 48°41' E 007°55'0 0.0
2016-Feb-10 07:33N 48°41' E 007°55'0 0.0
2016-Feb-10 06:30N 48°40' E 007°55'0 0.0
2016-Feb-10 05:33N 48°40' E 007°55'0 0.0
2016-Feb-10 04:33N 48°40' E 007°55'0 0.0
2016-Feb-10 03:33N 48°40' E 007°55'0 0.0
2016-Feb-10 02:33N 48°40' E 007°55'0 0.0
2016-Feb-10 01:33N 48°40' E 007°55'0 0.0
2016-Feb-10 00:33N 48°40' E 007°55'0 0.0
2016-Feb-09 23:33N 48°40' E 007°55'0 0.0
2016-Feb-09 22:33N 48°40' E 007°55'0 0.0
2016-Feb-09 21:33N 48°40' E 007°55'0 0.0
2016-Feb-09 20:33N 48°40' E 007°55'0 0.0
2016-Feb-09 19:33N 48°40' E 007°55'0 0.0
2016-Feb-09 18:33N 48°40' E 007°55'0 0.0
2016-Feb-09 17:31N 48°40' E 007°55'0 0.0
2016-Feb-09 16:32N 48°40' E 007°55'0 0.0
2016-Feb-09 15:33N 48°40' E 007°55'66 5.7
2016-Feb-09 04:09N 47°36' E 007°36'1 1.4
2016-Feb-09 03:33N 47°35' E 007°35'0 0.0
2016-Feb-09 02:33N 47°35' E 007°35'0 0.0
2016-Feb-09 01:33N 47°35' E 007°35'0 0.0
2016-Feb-09 00:33N 47°35' E 007°35'0 0.0
2016-Feb-08 23:33N 47°35' E 007°35'0 0.0
2016-Feb-08 22:33N 47°35' E 007°35'0 0.0
2016-Feb-08 21:33N 47°35' E 007°35'0 0.0
2016-Feb-08 20:33N 47°35' E 007°35'0 0.0
2016-Feb-08 19:33N 47°35' E 007°35'0 0.0
2016-Feb-08 18:33N 47°35' E 007°35'0 0.0
2016-Feb-08 17:33N 47°35' E 007°35'0 0.0
2016-Feb-08 16:33N 47°35' E 007°35'0 0.0
2016-Feb-08 15:33N 47°35' E 007°35'0 0.0
2016-Feb-08 14:33N 47°35' E 007°35'0 0.0
2016-Feb-08 13:33N 47°35' E 007°35'0 0.0
2016-Feb-08 12:33N 47°35' E 007°35'0 0.0
2016-Feb-08 11:33N 47°35' E 007°35'0 0.0
2016-Feb-08 10:33N 47°35' E 007°35'0 0.0
2016-Feb-08 09:33N 47°35' E 007°35'0 0.0
2016-Feb-08 08:32N 47°35' E 007°35'0 0.0
2016-Feb-08 07:33N 47°35' E 007°35'0 0.0
2016-Feb-08 06:33N 47°35' E 007°35'0 0.0
2016-Feb-08 05:33N 47°35' E 007°35'0 0.0
2016-Feb-08 04:33N 47°35' E 007°35'0 0.0
2016-Feb-08 03:33N 47°35' E 007°35'0 0.0
2016-Feb-08 02:33N 47°35' E 007°35'0 0.0
2016-Feb-08 01:33N 47°35' E 007°35'0 0.0
2016-Feb-08 00:33N 47°35' E 007°35'0 0.0
2016-Feb-07 23:32N 47°35' E 007°35'0 0.0
2016-Feb-07 22:33N 47°35' E 007°35'0 0.0
2016-Feb-07 21:33N 47°35' E 007°35'0 0.0
2016-Feb-07 20:33N 47°35' E 007°35'0 0.0
2016-Feb-07 19:33N 47°35' E 007°35'0 0.0
2016-Feb-07 18:33N 47°35' E 007°35'0 0.0
2016-Feb-07 17:33N 47°35' E 007°35'0 0.0
2016-Feb-07 16:33N 47°35' E 007°35'0 0.0
2016-Feb-07 15:33N 47°35' E 007°35'0 0.0
2016-Feb-07 14:33N 47°35' E 007°35'0 0.0
2016-Feb-07 13:15N 47°35' E 007°35'0 0.0
2016-Feb-07 12:33N 47°35' E 007°35'0 0.0
2016-Feb-07 11:33N 47°35' E 007°35'0 0.0
2016-Feb-07 10:33N 47°35' E 007°35'0 0.0
2016-Feb-06 08:17N 47°35' E 007°35'0 0.0
2016-Feb-06 07:27N 47°35' E 007°35'0 0.0
2016-Feb-06 06:33N 47°35' E 007°35'0 0.0
2016-Feb-06 05:32N 47°35' E 007°35'0 0.0
2016-Feb-06 04:31N 47°35' E 007°35'0 0.0
2016-Feb-06 03:33N 47°35' E 007°35'0 0.0
2016-Feb-06 02:33N 47°35' E 007°35'0 0.0
2016-Feb-06 01:32N 47°35' E 007°35'0 0.0
2016-Feb-06 00:33N 47°35' E 007°35'0 0.0
2016-Feb-05 23:33N 47°35' E 007°35'0 0.0
2016-Feb-05 22:33N 47°35' E 007°35'0 0.0
2016-Feb-05 21:32N 47°35' E 007°35'0 0.0
2016-Feb-05 20:30N 47°35' E 007°35'0 0.0
2016-Feb-05 19:32N 47°35' E 007°35'0 0.0
2016-Feb-05 18:33N 47°35' E 007°35'0 0.0
2016-Feb-05 17:33N 47°35' E 007°35'0 0.0
2016-Feb-05 16:33N 47°35' E 007°35'0 0.0
2016-Feb-05 15:33N 47°35' E 007°35'0 0.0
2016-Feb-05 14:20N 47°35' E 007°35'0 0.0
2016-Feb-05 13:13N 47°35' E 007°35'0 0.0
2016-Feb-05 12:24N 47°35' E 007°35'0 0.2
2016-Feb-05 11:33N 47°35' E 007°36'0 0.4
2016-Feb-05 10:22N 47°35' E 007°35'0 0.2
2016-Feb-05 09:33N 47°35' E 007°35'0 0.0
2016-Feb-05 08:33N 47°35' E 007°35'0 0.0
2016-Feb-05 07:33N 47°35' E 007°35'1 0.6
2016-Feb-05 06:33N 47°35' E 007°35'0 0.0
2016-Feb-05 05:33N 47°35' E 007°35'0 0.0
2016-Feb-05 04:33N 47°35' E 007°35'0 0.0
2016-Feb-05 03:33N 47°35' E 007°35'0 0.0
2016-Feb-05 02:33N 47°35' E 007°35'0 0.0
2016-Feb-05 01:33N 47°35' E 007°35'0 0.0
2016-Feb-05 00:33N 47°35' E 007°35'0 0.0
2016-Feb-04 23:33N 47°35' E 007°35'0 0.0
2016-Feb-04 22:33N 47°35' E 007°35'0 0.0
2016-Feb-04 21:33N 47°35' E 007°35'0 0.0
2016-Feb-04 20:33N 47°35' E 007°35'0 0.0
2016-Feb-04 19:33N 47°35' E 007°35'0 0.0
2016-Feb-04 18:33N 47°35' E 007°35'0 0.0
2016-Feb-04 17:33N 47°35' E 007°35'0 0.0
2016-Feb-04 16:33N 47°35' E 007°35'0 0.0
2016-Feb-04 15:30N 47°35' E 007°35'0 0.0
2016-Feb-04 14:33N 47°35' E 007°35'0 0.0
2016-Feb-04 13:33N 47°35' E 007°35'0 0.0
2016-Feb-04 12:32N 47°35' E 007°35'0 0.0
2016-Feb-04 11:32N 47°35' E 007°35'0 0.0
2016-Feb-04 10:33N 47°35' E 007°35'0 0.0
2016-Feb-04 09:18N 47°35' E 007°35'0 0.0
2016-Feb-04 08:30N 47°35' E 007°35'0 0.0
2016-Feb-04 07:29N 47°35' E 007°35'0 0.0
2016-Feb-04 03:06N 47°35' E 007°35'0 0.0
2016-Feb-03 20:20N 47°35' E 007°35'0 0.0
2016-Feb-03 15:33N 47°35' E 007°35'0 0.0
2016-Feb-03 13:33N 47°35' E 007°35'0 0.0
2016-Feb-03 12:31N 47°35' E 007°35'0 0.0
2016-Feb-03 11:20N 47°35' E 007°35'0 0.0
2016-Feb-03 10:31N 47°35' E 007°35'0 0.1
2016-Feb-03 09:33N 47°35' E 007°35'0 0.1
2016-Feb-03 08:33N 47°35' E 007°36'0 0.0
2016-Feb-03 05:11N 47°35' E 007°35'0 0.0
2016-Feb-03 04:21N 47°35' E 007°35'0 0.0
2016-Feb-03 03:34N 47°35' E 007°35'0 0.0
2016-Feb-03 02:34N 47°35' E 007°35'0 0.0
2016-Feb-03 01:34N 47°35' E 007°35'0 0.0
2016-Feb-03 00:34N 47°35' E 007°35'0 0.0
2016-Feb-02 23:34N 47°35' E 007°35'0 0.0
2016-Feb-02 22:33N 47°35' E 007°35'0 0.0
2016-Feb-02 21:33N 47°35' E 007°35'0 0.0
2016-Feb-02 20:33N 47°35' E 007°35'0 0.0
2016-Feb-02 19:33N 47°35' E 007°35'0 0.0
2016-Feb-02 18:33N 47°35' E 007°35'0 0.0
2016-Feb-02 17:33N 47°35' E 007°35'0 0.0
2016-Feb-02 16:33N 47°35' E 007°35'0 0.0
2016-Feb-02 15:33N 47°35' E 007°35'0 0.0
2016-Feb-02 14:34N 47°35' E 007°35'0 0.0
2016-Feb-02 13:34N 47°35' E 007°35'0 0.0
2016-Feb-02 12:34N 47°35' E 007°35'0 0.0
2016-Feb-02 11:34N 47°35' E 007°35'0 0.2
2016-Feb-02 10:34N 47°35' E 007°35'0 0.1
2016-Feb-02 09:24N 47°35' E 007°35'0 0.2
2016-Feb-02 08:27N 47°35' E 007°35'  

Dump ship's entire track history